AirNav   ATP
 
 418 users online  

WA09 Roche Harbor Airport
Roche Harbor, Washington, USA

GOING TO ROCHE HARBOR?


FAA INFORMATION EFFECTIVE 21 JUNE 2018

Location

FAA Identifier: WA09
Lat/Long: 48-36-44.3580N / 123-08-18.6720W
48-36.739300N / 123-08.311200W
48.6123217 / -123.1385200
(estimated)
Elevation: 100 ft. / 30 m (estimated)
Variation: 21E (1985)
From city: 1 mile NE of ROCHE HARBOR, WA
Time zone: UTC -7 (UTC -8 during Standard Time)
Zip code: 98250

Airport Operations

Airport use: Private use. Permission required prior to landing
Activation date: 07/1961
Control tower: no
ARTCC: VANCOUVER CENTER
FSS: SEATTLE FLIGHT SERVICE STATION
Attendance: UNATNDD
Wind indicator: yes
Segmented circle: no
Lights: DUSK-2200
Landing fee: yes

Airport Communications

WX ASOS at FHR (7 nm SE): 135.675 (360-378-8491)
WX AWOS-3 at ORS (11 nm NE): 135.425 (360-376-6045)

Nearby radio navigation aids

VOR radial/distance  VOR name  Freq  Var
YYJr100/15.3VICTORIA VOR/DME113.7017E
CVVr304/27.5PENN COVE VOR/DME117.2019E
YVRr162/27.9VANCOUVER VOR/DME115.9017E
HUHr208/29.8WHATCOM VORTAC113.0020E

 
NDB name  Hdg/Dist  Freq  Var  ID
FRIDAY HARBOR306/7.528417EFHR ..-. .... .-.
VICTORIA079/10.520021EYJ -.-- .---
SKAGIT/BAY VIEW271/29.924016EBVS -... ...- ...

Airport Services

Airframe service: NONE
Powerplant service: NONE
Bottled oxygen: NONE
Bulk oxygen: NONE

Runway Information

Runway 7/25

Dimensions: 3593 x 30 ft. / 1095 x 9 m
Surface: asphalt, in fair condition
Runway edge lights: non-standard
RY 07/25 NSTD LIRL, ONLY CENTER 2700 FT OF RY IS LGTD.
Operational restrictions: RY 25 HAS A DOWNHILL 50 FT GRADIENT FM DSPLCD THLD TO EAST END OF RY.
RUNWAY 7  RUNWAY 25
Traffic pattern: leftleft
Displaced threshold: 587 ft.92 ft.
Markings: basic, in fair conditionbasic, in fair condition
Obstructions: 160 ft. tree, 1136 ft. from runway, 75 ft. left of centerline30 ft. hill, 200 ft. from runway

Airport Ownership and Management from official FAA records

Ownership: Privately-owned
Owner: ROCHE HARBOR AIRPORT INC
8484 ROCHE HARBOR ROAD
FRIDAY HARBOR, WA 98250
Phone 360-378-3500
Manager: DAVID GIBBS
8484 ROCHE HARBOR ROAD
FRIDAY HARBOR, WA 98250
Phone 360-378-3500

Additional Remarks

NO LINE OF SIGHT BTN RY ENDS. PILOTS MAINTAIN COMMS ON FREQ 128.25 WITH LDG LGTS ON.
NO PARKING ON GRASS DURG RAINY SEASON NOV-APR.
MEDIVAC ACFT HAVE PRIORITY USE OF ARPT.
NGT OPNS NOT RECOMMENDED.
DRAINAGE DITCH N. SIDE RY 30 FT FM RY EDGE.
NO INTERSECTION DEPARTURES FROM TWY C.
NO DEPARTURES ALLOWED FROM TWY C.

Instrument Procedures

There are no published instrument procedures at WA09.

Some nearby airports with instrument procedures:

KFHR - Friday Harbor Airport (7 nm SE)
KORS - Orcas Island Airport (11 nm NE)
KNUW - Whidbey Island Naval Air Station (Ault Field) (25 nm SE)
KBLI - Bellingham International Airport (26 nm NE)
KOKH - AJ Eisenberg Airport (28 nm SE)
 
Loc | Ops | Rwys | IFR | FBO | Links
Com | Nav | Svcs | Stats | Notes


 
Area around WA09 (Roche Harbor Airport)
 
Road maps at: MapQuest Bing Google
 
Aerial photo
WARNING: Photo may not be current or correct
Aerial photo of WA09 (Roche Harbor Airport)
Photo courtesy of longbachnguyen.com
Photo taken 17-Jun-2010

Do you have a better or more recent aerial photo of Roche Harbor Airport that you would like to share? If so, please send us your photo.

 
Sectional chart

 
Airport distance calculator
Flying to Roche Harbor Airport? Find the distance to fly.

From to WA09

Sunrise and sunset
Times for 16-Jul-2018
 Local
(UTC-7)
 Zulu
(UTC)
Morning civil twilight04:4811:48
Sunrise05:2812:28
Sunset21:0904:09
Evening civil twilight21:4904:49

Current date and time
Zulu (UTC)  17-Jul-2018 06:48:35
Local (UTC-7)  16-Jul-2018 23:48:35
 
METAR
CWZO 
5nm SW 
170600Z AUTO 17014KT RMK AO1 PK WND 17017/0539
KFHR 
7nm SE 
170553Z AUTO 00000KT 10SM CLR 13/09 A2997 RMK AO2 SLP147 T01330094 10289 20133 53003 TSNO
CWEZ 
10nm NE 
170600Z AUTO 10004KT 19/11 RMK AO1 SLP139 T01880114 51002
KORS 
11nm NE 
170635Z AUTO 15006KT 10SM CLR 18/11 A2995 RMK AO2
CWYJ 
11nm SW 
170600Z AUTO 24002KT 19/08 RMK AO1 SLP140 T01920082 54000
CYYJ 
12nm W 
170600Z VRB02KT 30SM SKC 18/11 A2994 RMK SLP142 DENSITY ALT 400FT
CWLM 
14nm SW 
170600Z AUTO 24009KT 14/10 RMK AO1 SLP141 T01440095 56002
CYWH 
14nm SW 
170400Z 24003KT 15SM SKC 17/10 A2994 RMK LAST STFD OBS/NEXT 171300 UTC SLP139 DENSITY ALT 300FT
CWPF 
16nm SW 
170630Z AUTO 02002KT 16/10 RMK AO1 T01620095
CWKH 
17nm W 
170600Z AUTO 25/06 RMK AO1 SLP138 T02460060 57001
TAF
CYYJ 
12nm W 
170538Z 1706/1806 VRB03KT P6SM SKC BECMG 1716/1718 10008KT BECMG 1803/1805 24005KT RMK NXT FCST BY 171200Z
CYWH 
14nm SW 
161738Z 1618/1704 23005KT P6SM SKC RMK NXT FCST BY 170000Z
NOTAMs
Click for the latest NOTAMs
NOTAMs are issued by the DoD/FAA and will open in a separate window not controlled by AirNav.

 

 
 

Getting Around: Taxi, Limo, Rental Cars, Mass Transit

  
 Business Name 
 
 Contact 
 
Services / Description
 
Comments
  
Susie's Moped Rentals, Inc 360-378-5244
[web site]
[email]
Rental cars, Ground transportation, Other business

More info about Susie's Moped Rentals, Inc
 
   write
 

Would you like to see your business listed on this page?

 If your business provides an interesting product or service to pilots, flight crews, aircraft, or users of the Roche Harbor Airport, you should consider listing it here.  To start the listing process, click on the button below
 
Add a business
 

Other Pages about Roche Harbor Airport

Update a link
 
Copyright © AirNav, LLC. All rights reserved. Privacy Policy  Contact